sensor_id;sensor_type;location;lat;lon;timestamp;temperature;humidity
3198;DHT22;1611;49.394;11.136;2024-03-29T00:00:37;4.40;76.50
3198;DHT22;1611;49.394;11.136;2024-03-29T00:03:03;4.50;76.60
3198;DHT22;1611;49.394;11.136;2024-03-29T00:05:29;4.50;76.70
3198;DHT22;1611;49.394;11.136;2024-03-29T00:07:55;4.50;76.80
3198;DHT22;1611;49.394;11.136;2024-03-29T00:10:21;4.50;76.80
3198;DHT22;1611;49.394;11.136;2024-03-29T00:12:49;4.60;77.00
3198;DHT22;1611;49.394;11.136;2024-03-29T00:15:14;4.60;76.10
3198;DHT22;1611;49.394;11.136;2024-03-29T00:17:40;4.60;76.30
3198;DHT22;1611;49.394;11.136;2024-03-29T00:20:07;4.60;76.40
3198;DHT22;1611;49.394;11.136;2024-03-29T00:22:32;4.70;76.70
3198;DHT22;1611;49.394;11.136;2024-03-29T00:24:58;4.70;76.60
3198;DHT22;1611;49.394;11.136;2024-03-29T00:27:24;4.70;76.30
3198;DHT22;1611;49.394;11.136;2024-03-29T00:29:51;4.70;75.70
3198;DHT22;1611;49.394;11.136;2024-03-29T00:32:17;4.70;75.70
3198;DHT22;1611;49.394;11.136;2024-03-29T00:34:43;4.70;75.80
3198;DHT22;1611;49.394;11.136;2024-03-29T00:37:09;4.70;75.80
3198;DHT22;1611;49.394;11.136;2024-03-29T00:39:34;4.70;75.90
3198;DHT22;1611;49.394;11.136;2024-03-29T00:42:00;4.70;75.90
3198;DHT22;1611;49.394;11.136;2024-03-29T00:44:26;4.70;75.90
3198;DHT22;1611;49.394;11.136;2024-03-29T00:46:53;4.70;76.00
3198;DHT22;1611;49.394;11.136;2024-03-29T00:49:19;4.70;75.80
3198;DHT22;1611;49.394;11.136;2024-03-29T00:51:45;4.60;76.20
3198;DHT22;1611;49.394;11.136;2024-03-29T00:54:11;4.70;75.70
3198;DHT22;1611;49.394;11.136;2024-03-29T00:56:36;4.70;76.20
3198;DHT22;1611;49.394;11.136;2024-03-29T00:59:02;4.70;75.90
3198;DHT22;1611;49.394;11.136;2024-03-29T01:01:28;4.60;75.80
3198;DHT22;1611;49.394;11.136;2024-03-29T01:03:55;4.70;75.90
3198;DHT22;1611;49.394;11.136;2024-03-29T01:06:21;4.60;75.90
3198;DHT22;1611;49.394;11.136;2024-03-29T01:08:46;4.60;76.20
3198;DHT22;1611;49.394;11.136;2024-03-29T01:11:12;4.60;76.10
3198;DHT22;1611;49.394;11.136;2024-03-29T01:13:38;4.60;75.70
3198;DHT22;1611;49.394;11.136;2024-03-29T01:16:04;4.60;75.70
3198;DHT22;1611;49.394;11.136;2024-03-29T01:18:30;4.70;75.90
3198;DHT22;1611;49.394;11.136;2024-03-29T01:20:57;4.70;76.10
3198;DHT22;1611;49.394;11.136;2024-03-29T01:23:23;4.70;76.20
3198;DHT22;1611;49.394;11.136;2024-03-29T01:25:48;4.80;76.30
3198;DHT22;1611;49.394;11.136;2024-03-29T01:28:14;4.80;76.00
3198;DHT22;1611;49.394;11.136;2024-03-29T01:30:40;4.80;75.80
3198;DHT22;1611;49.394;11.136;2024-03-29T01:33:06;4.80;76.20
3198;DHT22;1611;49.394;11.136;2024-03-29T01:35:31;4.90;76.50
3198;DHT22;1611;49.394;11.136;2024-03-29T01:37:58;4.90;76.60
3198;DHT22;1611;49.394;11.136;2024-03-29T01:40:24;5.00;76.50
3198;DHT22;1611;49.394;11.136;2024-03-29T01:42:53;5.00;76.40
3198;DHT22;1611;49.394;11.136;2024-03-29T01:45:19;5.10;76.30
3198;DHT22;1611;49.394;11.136;2024-03-29T01:47:46;5.10;75.80
3198;DHT22;1611;49.394;11.136;2024-03-29T01:50:13;5.20;75.10
3198;DHT22;1611;49.394;11.136;2024-03-29T01:52:39;5.20;75.10
3198;DHT22;1611;49.394;11.136;2024-03-29T01:55:08;5.30;74.70
3198;DHT22;1611;49.394;11.136;2024-03-29T01:57:35;5.20;73.60
3198;DHT22;1611;49.394;11.136;2024-03-29T02:00:02;5.20;73.40
3198;DHT22;1611;49.394;11.136;2024-03-29T02:02:31;5.20;73.90
3198;DHT22;1611;49.394;11.136;2024-03-29T02:04:59;5.20;74.00
3198;DHT22;1611;49.394;11.136;2024-03-29T02:07:26;5.30;74.30
3198;DHT22;1611;49.394;11.136;2024-03-29T02:09:52;5.30;74.50
3198;DHT22;1611;49.394;11.136;2024-03-29T02:12:20;5.30;74.50
3198;DHT22;1611;49.394;11.136;2024-03-29T02:14:47;5.30;73.60
3198;DHT22;1611;49.394;11.136;2024-03-29T02:17:13;5.30;74.20
3198;DHT22;1611;49.394;11.136;2024-03-29T02:19:40;5.30;74.40
3198;DHT22;1611;49.394;11.136;2024-03-29T02:22:07;5.30;74.80
3198;DHT22;1611;49.394;11.136;2024-03-29T02:24:38;5.30;75.30
3198;DHT22;1611;49.394;11.136;2024-03-29T02:27:05;5.40;75.20
3198;DHT22;1611;49.394;11.136;2024-03-29T02:29:32;5.40;75.00
3198;DHT22;1611;49.394;11.136;2024-03-29T02:31:57;5.40;75.10
3198;DHT22;1611;49.394;11.136;2024-03-29T02:34:24;5.50;74.20
3198;DHT22;1611;49.394;11.136;2024-03-29T02:36:51;5.50;74.20
3198;DHT22;1611;49.394;11.136;2024-03-29T02:39:17;5.50;73.90
3198;DHT22;1611;49.394;11.136;2024-03-29T02:41:45;5.60;73.60
3198;DHT22;1611;49.394;11.136;2024-03-29T02:44:12;5.50;73.40
3198;DHT22;1611;49.394;11.136;2024-03-29T02:46:41;5.60;72.20
3198;DHT22;1611;49.394;11.136;2024-03-29T02:49:07;5.60;72.80
3198;DHT22;1611;49.394;11.136;2024-03-29T02:51:33;5.70;72.30
3198;DHT22;1611;49.394;11.136;2024-03-29T02:54:00;5.70;73.40
3198;DHT22;1611;49.394;11.136;2024-03-29T02:56:25;5.70;73.40
3198;DHT22;1611;49.394;11.136;2024-03-29T02:58:55;5.70;73.40
3198;DHT22;1611;49.394;11.136;2024-03-29T03:01:20;5.70;72.30
3198;DHT22;1611;49.394;11.136;2024-03-29T03:03:47;5.70;72.20
3198;DHT22;1611;49.394;11.136;2024-03-29T03:06:13;5.80;72.40
3198;DHT22;1611;49.394;11.136;2024-03-29T03:08:39;5.90;72.40
3198;DHT22;1611;49.394;11.136;2024-03-29T03:11:23;5.80;72.00
3198;DHT22;1611;49.394;11.136;2024-03-29T03:13:50;5.90;72.40
3198;DHT22;1611;49.394;11.136;2024-03-29T03:16:18;5.90;71.80
3198;DHT22;1611;49.394;11.136;2024-03-29T03:18:44;5.90;71.40
3198;DHT22;1611;49.394;11.136;2024-03-29T03:21:10;5.90;71.30
3198;DHT22;1611;49.394;11.136;2024-03-29T03:23:36;6.00;71.30
3198;DHT22;1611;49.394;11.136;2024-03-29T03:26:03;6.00;70.70
3198;DHT22;1611;49.394;11.136;2024-03-29T03:28:29;5.90;68.70
3198;DHT22;1611;49.394;11.136;2024-03-29T03:30:56;6.00;69.20
3198;DHT22;1611;49.394;11.136;2024-03-29T03:33:23;6.00;69.10
3198;DHT22;1611;49.394;11.136;2024-03-29T03:35:50;6.00;69.70
3198;DHT22;1611;49.394;11.136;2024-03-29T03:38:16;6.00;69.80
3198;DHT22;1611;49.394;11.136;2024-03-29T03:40:43;6.00;69.20
3198;DHT22;1611;49.394;11.136;2024-03-29T03:43:09;6.00;68.30
3198;DHT22;1611;49.394;11.136;2024-03-29T03:45:35;6.10;69.10
3198;DHT22;1611;49.394;11.136;2024-03-29T03:48:02;6.10;68.80
3198;DHT22;1611;49.394;11.136;2024-03-29T03:50:30;6.10;67.80
3198;DHT22;1611;49.394;11.136;2024-03-29T03:52:56;6.10;67.80
3198;DHT22;1611;49.394;11.136;2024-03-29T03:55:23;6.20;69.10
3198;DHT22;1611;49.394;11.136;2024-03-29T03:57:49;6.20;67.50
3198;DHT22;1611;49.394;11.136;2024-03-29T04:00:18;6.20;65.10
3198;DHT22;1611;49.394;11.136;2024-03-29T04:02:47;6.20;64.50
3198;DHT22;1611;49.394;11.136;2024-03-29T04:05:13;6.20;64.80
3198;DHT22;1611;49.394;11.136;2024-03-29T04:07:40;6.20;62.70
3198;DHT22;1611;49.394;11.136;2024-03-29T04:10:08;6.30;66.10
3198;DHT22;1611;49.394;11.136;2024-03-29T04:12:33;6.20;64.90
3198;DHT22;1611;49.394;11.136;2024-03-29T04:15:00;6.30;66.40
3198;DHT22;1611;49.394;11.136;2024-03-29T04:17:26;6.30;63.30
3198;DHT22;1611;49.394;11.136;2024-03-29T04:19:52;6.30;63.80
3198;DHT22;1611;49.394;11.136;2024-03-29T04:22:18;6.30;63.50
3198;DHT22;1611;49.394;11.136;2024-03-29T04:24:46;6.30;61.90
3198;DHT22;1611;49.394;11.136;2024-03-29T04:27:12;6.40;60.70
3198;DHT22;1611;49.394;11.136;2024-03-29T04:29:38;6.30;58.20
3198;DHT22;1611;49.394;11.136;2024-03-29T04:32:05;6.40;59.80
3198;DHT22;1611;49.394;11.136;2024-03-29T04:34:31;6.40;62.50
3198;DHT22;1611;49.394;11.136;2024-03-29T04:36:57;6.40;60.50
3198;DHT22;1611;49.394;11.136;2024-03-29T04:39:24;6.50;56.90
3198;DHT22;1611;49.394;11.136;2024-03-29T04:41:52;6.60;59.90
3198;DHT22;1611;49.394;11.136;2024-03-29T04:44:23;6.50;59.80
3198;DHT22;1611;49.394;11.136;2024-03-29T04:46:50;6.50;61.40
3198;DHT22;1611;49.394;11.136;2024-03-29T04:49:18;6.50;59.90
3198;DHT22;1611;49.394;11.136;2024-03-29T04:51:48;6.50;58.10
3198;DHT22;1611;49.394;11.136;2024-03-29T04:54:15;6.50;58.80
3198;DHT22;1611;49.394;11.136;2024-03-29T04:56:41;6.60;57.10
3198;DHT22;1611;49.394;11.136;2024-03-29T04:59:09;6.60;59.40
3198;DHT22;1611;49.394;11.136;2024-03-29T05:01:36;6.70;61.20
3198;DHT22;1611;49.394;11.136;2024-03-29T05:04:03;6.70;60.10
3198;DHT22;1611;49.394;11.136;2024-03-29T05:06:31;6.70;60.40
3198;DHT22;1611;49.394;11.136;2024-03-29T05:08:58;6.70;57.90
3198;DHT22;1611;49.394;11.136;2024-03-29T05:11:24;6.80;53.90
3198;DHT22;1611;49.394;11.136;2024-03-29T05:13:51;6.80;56.50
3198;DHT22;1611;49.394;11.136;2024-03-29T05:16:19;6.90;54.20
3198;DHT22;1611;49.394;11.136;2024-03-29T05:18:47;7.00;52.40
3198;DHT22;1611;49.394;11.136;2024-03-29T05:21:13;7.10;54.00
3198;DHT22;1611;49.394;11.136;2024-03-29T05:23:40;7.20;56.60
3198;DHT22;1611;49.394;11.136;2024-03-29T05:26:07;7.20;55.30
3198;DHT22;1611;49.394;11.136;2024-03-29T05:28:33;7.20;55.10
3198;DHT22;1611;49.394;11.136;2024-03-29T05:31:11;7.30;54.50
3198;DHT22;1611;49.394;11.136;2024-03-29T05:33:39;7.30;54.00
3198;DHT22;1611;49.394;11.136;2024-03-29T05:36:06;7.30;49.90
3198;DHT22;1611;49.394;11.136;2024-03-29T05:38:35;7.30;49.90
3198;DHT22;1611;49.394;11.136;2024-03-29T05:41:02;7.40;50.00
3198;DHT22;1611;49.394;11.136;2024-03-29T05:43:29;7.50;50.20
3198;DHT22;1611;49.394;11.136;2024-03-29T05:45:56;7.50;48.20
3198;DHT22;1611;49.394;11.136;2024-03-29T05:48:22;7.60;51.70
3198;DHT22;1611;49.394;11.136;2024-03-29T05:50:50;7.60;54.20
3198;DHT22;1611;49.394;11.136;2024-03-29T05:53:17;7.50;54.50
3198;DHT22;1611;49.394;11.136;2024-03-29T05:55:43;7.50;56.80
3198;DHT22;1611;49.394;11.136;2024-03-29T05:58:10;7.50;50.60
3198;DHT22;1611;49.394;11.136;2024-03-29T06:00:42;7.60;54.50
3198;DHT22;1611;49.394;11.136;2024-03-29T06:03:08;7.60;52.40
3198;DHT22;1611;49.394;11.136;2024-03-29T06:05:35;7.60;53.00
3198;DHT22;1611;49.394;11.136;2024-03-29T06:08:03;7.60;51.30
3198;DHT22;1611;49.394;11.136;2024-03-29T06:10:30;7.70;48.20
3198;DHT22;1611;49.394;11.136;2024-03-29T06:12:57;7.80;50.40
3198;DHT22;1611;49.394;11.136;2024-03-29T06:15:32;7.90;52.90
3198;DHT22;1611;49.394;11.136;2024-03-29T06:18:16;8.00;49.70
3198;DHT22;1611;49.394;11.136;2024-03-29T06:20:44;8.10;53.40
3198;DHT22;1611;49.394;11.136;2024-03-29T06:23:12;8.10;55.60
3198;DHT22;1611;49.394;11.136;2024-03-29T06:25:39;8.10;50.10
3198;DHT22;1611;49.394;11.136;2024-03-29T06:28:06;8.10;49.60
3198;DHT22;1611;49.394;11.136;2024-03-29T06:30:33;8.20;48.70
3198;DHT22;1611;49.394;11.136;2024-03-29T06:32:59;8.30;47.30
3198;DHT22;1611;49.394;11.136;2024-03-29T06:35:28;8.40;48.70
3198;DHT22;1611;49.394;11.136;2024-03-29T06:37:55;8.50;47.30
3198;DHT22;1611;49.394;11.136;2024-03-29T06:40:23;8.50;44.20
3198;DHT22;1611;49.394;11.136;2024-03-29T06:42:50;8.50;47.30
3198;DHT22;1611;49.394;11.136;2024-03-29T06:45:16;8.50;46.00
3198;DHT22;1611;49.394;11.136;2024-03-29T06:47:43;8.60;46.70
3198;DHT22;1611;49.394;11.136;2024-03-29T06:50:10;8.80;48.50
3198;DHT22;1611;49.394;11.136;2024-03-29T06:52:36;8.80;44.70
3198;DHT22;1611;49.394;11.136;2024-03-29T06:55:03;8.90;47.10
3198;DHT22;1611;49.394;11.136;2024-03-29T06:57:31;9.00;44.40
3198;DHT22;1611;49.394;11.136;2024-03-29T07:00:00;8.90;43.90
3198;DHT22;1611;49.394;11.136;2024-03-29T07:02:28;9.00;42.90
3198;DHT22;1611;49.394;11.136;2024-03-29T07:04:55;9.20;44.00
3198;DHT22;1611;49.394;11.136;2024-03-29T07:07:22;9.30;43.10
3198;DHT22;1611;49.394;11.136;2024-03-29T07:09:48;9.50;44.50
3198;DHT22;1611;49.394;11.136;2024-03-29T07:12:15;9.60;43.70
3198;DHT22;1611;49.394;11.136;2024-03-29T07:14:43;9.70;43.50
3198;DHT22;1611;49.394;11.136;2024-03-29T07:17:09;9.70;43.10
3198;DHT22;1611;49.394;11.136;2024-03-29T07:19:36;9.80;41.20
3198;DHT22;1611;49.394;11.136;2024-03-29T07:22:03;9.90;41.90
3198;DHT22;1611;49.394;11.136;2024-03-29T07:24:30;10.00;41.40
3198;DHT22;1611;49.394;11.136;2024-03-29T07:26:57;10.10;39.00
3198;DHT22;1611;49.394;11.136;2024-03-29T07:29:23;10.00;36.70
3198;DHT22;1611;49.394;11.136;2024-03-29T07:31:51;10.20;37.50
3198;DHT22;1611;49.394;11.136;2024-03-29T07:34:19;10.30;34.80
3198;DHT22;1611;49.394;11.136;2024-03-29T07:36:46;10.50;34.60
3198;DHT22;1611;49.394;11.136;2024-03-29T07:39:12;10.60;33.70
3198;DHT22;1611;49.394;11.136;2024-03-29T07:41:39;10.90;33.70
3198;DHT22;1611;49.394;11.136;2024-03-29T07:44:06;11.10;32.50
3198;DHT22;1611;49.394;11.136;2024-03-29T07:46:34;11.20;32.10
3198;DHT22;1611;49.394;11.136;2024-03-29T07:49:03;11.30;31.10
3198;DHT22;1611;49.394;11.136;2024-03-29T07:51:30;11.20;29.70
3198;DHT22;1611;49.394;11.136;2024-03-29T07:53:56;11.30;30.70
3198;DHT22;1611;49.394;11.136;2024-03-29T07:56:23;11.40;30.20
3198;DHT22;1611;49.394;11.136;2024-03-29T07:58:51;11.40;29.20
3198;DHT22;1611;49.394;11.136;2024-03-29T08:01:19;11.30;30.30
3198;DHT22;1611;49.394;11.136;2024-03-29T08:03:45;11.50;30.30
3198;DHT22;1611;49.394;11.136;2024-03-29T08:06:13;11.60;29.90
3198;DHT22;1611;49.394;11.136;2024-03-29T08:08:42;11.80;31.60
3198;DHT22;1611;49.394;11.136;2024-03-29T08:11:09;11.90;29.30
3198;DHT22;1611;49.394;11.136;2024-03-29T08:13:37;12.00;29.90
3198;DHT22;1611;49.394;11.136;2024-03-29T08:16:04;12.10;29.20
3198;DHT22;1611;49.394;11.136;2024-03-29T08:18:32;12.10;30.00
3198;DHT22;1611;49.394;11.136;2024-03-29T08:20:59;12.00;29.60
3198;DHT22;1611;49.394;11.136;2024-03-29T08:23:27;12.20;29.20
3198;DHT22;1611;49.394;11.136;2024-03-29T08:25:54;12.50;28.80
3198;DHT22;1611;49.394;11.136;2024-03-29T08:28:21;12.60;27.50
3198;DHT22;1611;49.394;11.136;2024-03-29T08:30:57;12.80;27.50
3198;DHT22;1611;49.394;11.136;2024-03-29T08:33:24;12.90;25.60
3198;DHT22;1611;49.394;11.136;2024-03-29T08:35:51;13.10;27.50
3198;DHT22;1611;49.394;11.136;2024-03-29T08:38:17;13.10;26.30
3198;DHT22;1611;49.394;11.136;2024-03-29T08:40:45;13.20;26.60
3198;DHT22;1611;49.394;11.136;2024-03-29T08:43:13;13.20;26.00
3198;DHT22;1611;49.394;11.136;2024-03-29T08:45:41;13.20;27.20
3198;DHT22;1611;49.394;11.136;2024-03-29T08:48:08;13.20;26.60
3198;DHT22;1611;49.394;11.136;2024-03-29T08:50:35;13.10;26.00
3198;DHT22;1611;49.394;11.136;2024-03-29T08:53:02;13.00;27.10
3198;DHT22;1611;49.394;11.136;2024-03-29T08:55:29;12.90;28.60
3198;DHT22;1611;49.394;11.136;2024-03-29T08:57:57;12.80;27.90
3198;DHT22;1611;49.394;11.136;2024-03-29T09:00:24;12.60;29.00
3198;DHT22;1611;49.394;11.136;2024-03-29T09:02:51;12.30;29.60
3198;DHT22;1611;49.394;11.136;2024-03-29T09:05:18;12.20;30.90
3198;DHT22;1611;49.394;11.136;2024-03-29T09:07:45;12.20;33.30
3198;DHT22;1611;49.394;11.136;2024-03-29T09:10:12;11.90;33.80
3198;DHT22;1611;49.394;11.136;2024-03-29T09:12:38;11.80;34.30
3198;DHT22;1611;49.394;11.136;2024-03-29T09:15:07;11.60;36.70
3198;DHT22;1611;49.394;11.136;2024-03-29T09:17:38;11.60;38.20
3198;DHT22;1611;49.394;11.136;2024-03-29T09:20:05;11.50;43.40
3198;DHT22;1611;49.394;11.136;2024-03-29T09:22:34;11.30;47.10
3198;DHT22;1611;49.394;11.136;2024-03-29T09:25:01;11.10;50.50
3198;DHT22;1611;49.394;11.136;2024-03-29T09:27:28;11.10;53.60
3198;DHT22;1611;49.394;11.136;2024-03-29T09:29:55;11.00;55.10
3198;DHT22;1611;49.394;11.136;2024-03-29T09:32:23;11.10;56.20
3198;DHT22;1611;49.394;11.136;2024-03-29T09:34:50;11.00;57.30
3198;DHT22;1611;49.394;11.136;2024-03-29T09:37:17;11.10;57.10
3198;DHT22;1611;49.394;11.136;2024-03-29T09:39:45;11.10;58.30
3198;DHT22;1611;49.394;11.136;2024-03-29T09:42:16;11.20;59.20
3198;DHT22;1611;49.394;11.136;2024-03-29T09:44:44;11.40;58.00
3198;DHT22;1611;49.394;11.136;2024-03-29T09:47:14;11.50;56.60
3198;DHT22;1611;49.394;11.136;2024-03-29T09:49:44;11.70;57.30
3198;DHT22;1611;49.394;11.136;2024-03-29T09:52:11;11.80;56.20
3198;DHT22;1611;49.394;11.136;2024-03-29T09:54:40;12.00;55.40
3198;DHT22;1611;49.394;11.136;2024-03-29T09:57:08;12.20;55.20
3198;DHT22;1611;49.394;11.136;2024-03-29T09:59:36;12.40;54.10
3198;DHT22;1611;49.394;11.136;2024-03-29T10:02:08;12.50;53.90
3198;DHT22;1611;49.394;11.136;2024-03-29T10:04:37;12.60;54.30
3198;DHT22;1611;49.394;11.136;2024-03-29T10:07:06;12.60;55.70
3198;DHT22;1611;49.394;11.136;2024-03-29T10:09:35;12.80;56.00
3198;DHT22;1611;49.394;11.136;2024-03-29T10:12:03;13.00;54.80
3198;DHT22;1611;49.394;11.136;2024-03-29T10:14:30;13.10;53.20
3198;DHT22;1611;49.394;11.136;2024-03-29T10:16:57;13.10;53.50
3198;DHT22;1611;49.394;11.136;2024-03-29T10:19:24;13.10;51.90
3198;DHT22;1611;49.394;11.136;2024-03-29T10:21:50;13.20;52.90
3198;DHT22;1611;49.394;11.136;2024-03-29T10:24:19;13.30;52.10
3198;DHT22;1611;49.394;11.136;2024-03-29T10:26:46;13.30;53.20
3198;DHT22;1611;49.394;11.136;2024-03-29T10:29:13;13.20;53.10
3198;DHT22;1611;49.394;11.136;2024-03-29T10:31:40;13.20;54.80
3198;DHT22;1611;49.394;11.136;2024-03-29T10:34:06;13.20;55.70
3198;DHT22;1611;49.394;11.136;2024-03-29T10:36:34;13.20;54.90
3198;DHT22;1611;49.394;11.136;2024-03-29T10:39:02;13.30;55.10
3198;DHT22;1611;49.394;11.136;2024-03-29T10:41:32;13.50;55.10
3198;DHT22;1611;49.394;11.136;2024-03-29T10:44:02;13.80;54.40
3198;DHT22;1611;49.394;11.136;2024-03-29T10:46:31;13.90;52.90
3198;DHT22;1611;49.394;11.136;2024-03-29T10:48:58;13.90;51.70
3198;DHT22;1611;49.394;11.136;2024-03-29T10:51:24;14.00;50.30
3198;DHT22;1611;49.394;11.136;2024-03-29T10:53:54;14.00;51.80
3198;DHT22;1611;49.394;11.136;2024-03-29T10:56:22;13.90;51.00
3198;DHT22;1611;49.394;11.136;2024-03-29T10:58:55;13.70;51.40
3198;DHT22;1611;49.394;11.136;2024-03-29T11:01:23;13.60;52.00
3198;DHT22;1611;49.394;11.136;2024-03-29T11:03:54;13.50;52.20
3198;DHT22;1611;49.394;11.136;2024-03-29T11:06:27;13.40;52.30
3198;DHT22;1611;49.394;11.136;2024-03-29T11:08:56;13.40;52.50
3198;DHT22;1611;49.394;11.136;2024-03-29T11:11:24;13.30;53.20
3198;DHT22;1611;49.394;11.136;2024-03-29T11:14:02;13.20;53.40
3198;DHT22;1611;49.394;11.136;2024-03-29T11:16:30;13.20;50.80
3198;DHT22;1611;49.394;11.136;2024-03-29T11:18:56;13.10;52.70
3198;DHT22;1611;49.394;11.136;2024-03-29T11:21:24;13.00;53.90
3198;DHT22;1611;49.394;11.136;2024-03-29T11:23:54;12.80;52.40
3198;DHT22;1611;49.394;11.136;2024-03-29T11:26:22;12.70;54.10
3198;DHT22;1611;49.394;11.136;2024-03-29T11:28:52;12.70;55.10
3198;DHT22;1611;49.394;11.136;2024-03-29T11:31:24;12.60;55.00
3198;DHT22;1611;49.394;11.136;2024-03-29T11:33:51;12.60;55.30
3198;DHT22;1611;49.394;11.136;2024-03-29T11:36:21;12.60;56.00
3198;DHT22;1611;49.394;11.136;2024-03-29T11:38:50;12.50;55.40
3198;DHT22;1611;49.394;11.136;2024-03-29T11:41:18;12.40;55.40
3198;DHT22;1611;49.394;11.136;2024-03-29T11:43:45;12.50;54.90
3198;DHT22;1611;49.394;11.136;2024-03-29T11:46:14;12.60;55.00
3198;DHT22;1611;49.394;11.136;2024-03-29T11:48:42;12.70;54.00
3198;DHT22;1611;49.394;11.136;2024-03-29T11:51:12;13.00;53.70
3198;DHT22;1611;49.394;11.136;2024-03-29T11:53:40;13.40;53.60
3198;DHT22;1611;49.394;11.136;2024-03-29T11:56:07;13.70;52.10
3198;DHT22;1611;49.394;11.136;2024-03-29T11:58:34;13.70;45.50
3198;DHT22;1611;49.394;11.136;2024-03-29T12:01:02;13.80;45.60
3198;DHT22;1611;49.394;11.136;2024-03-29T12:03:29;13.80;45.80
3198;DHT22;1611;49.394;11.136;2024-03-29T12:05:59;13.80;45.70
3198;DHT22;1611;49.394;11.136;2024-03-29T12:08:29;13.80;46.20
3198;DHT22;1611;49.394;11.136;2024-03-29T12:10:57;14.00;46.30
3198;DHT22;1611;49.394;11.136;2024-03-29T12:13:24;14.00;45.30
3198;DHT22;1611;49.394;11.136;2024-03-29T12:15:51;14.20;44.60
3198;DHT22;1611;49.394;11.136;2024-03-29T12:18:19;14.40;44.60
3198;DHT22;1611;49.394;11.136;2024-03-29T12:20:48;14.60;41.90
3198;DHT22;1611;49.394;11.136;2024-03-29T12:23:17;14.70;42.90
3198;DHT22;1611;49.394;11.136;2024-03-29T12:25:44;15.10;41.50
3198;DHT22;1611;49.394;11.136;2024-03-29T12:28:12;15.50;39.30
3198;DHT22;1611;49.394;11.136;2024-03-29T12:30:42;16.10;37.30
3198;DHT22;1611;49.394;11.136;2024-03-29T12:33:11;16.70;34.70
3198;DHT22;1611;49.394;11.136;2024-03-29T12:35:41;17.40;33.20
3198;DHT22;1611;49.394;11.136;2024-03-29T12:38:11;18.10;31.40
3198;DHT22;1611;49.394;11.136;2024-03-29T12:40:41;18.40;27.70
3198;DHT22;1611;49.394;11.136;2024-03-29T12:43:10;18.50;27.10
3198;DHT22;1611;49.394;11.136;2024-03-29T12:45:39;18.60;25.10
3198;DHT22;1611;49.394;11.136;2024-03-29T12:48:09;18.60;25.40
3198;DHT22;1611;49.394;11.136;2024-03-29T12:50:36;19.50;25.00
3198;DHT22;1611;49.394;11.136;2024-03-29T12:53:06;20.10;22.60
3198;DHT22;1611;49.394;11.136;2024-03-29T12:55:33;21.00;22.60
3198;DHT22;1611;49.394;11.136;2024-03-29T12:58:02;22.00;19.00
3198;DHT22;1611;49.394;11.136;2024-03-29T13:00:30;22.60;17.50
3198;DHT22;1611;49.394;11.136;2024-03-29T13:02:57;22.80;17.50
3198;DHT22;1611;49.394;11.136;2024-03-29T13:05:23;22.50;17.20
3198;DHT22;1611;49.394;11.136;2024-03-29T13:07:50;21.90;17.80
3198;DHT22;1611;49.394;11.136;2024-03-29T13:10:17;21.30;19.00
3198;DHT22;1611;49.394;11.136;2024-03-29T13:12:47;21.00;19.10
3198;DHT22;1611;49.394;11.136;2024-03-29T13:15:17;20.60;20.90
3198;DHT22;1611;49.394;11.136;2024-03-29T13:17:45;20.10;21.50
3198;DHT22;1611;49.394;11.136;2024-03-29T13:20:13;19.40;22.00
3198;DHT22;1611;49.394;11.136;2024-03-29T13:22:41;19.00;23.60
3198;DHT22;1611;49.394;11.136;2024-03-29T13:25:09;18.90;24.60
3198;DHT22;1611;49.394;11.136;2024-03-29T13:27:36;18.80;26.20
3198;DHT22;1611;49.394;11.136;2024-03-29T13:30:04;18.60;25.40
3198;DHT22;1611;49.394;11.136;2024-03-29T13:32:34;18.60;26.20
3198;DHT22;1611;49.394;11.136;2024-03-29T13:35:00;18.60;26.10
3198;DHT22;1611;49.394;11.136;2024-03-29T13:37:31;18.90;24.80
3198;DHT22;1611;49.394;11.136;2024-03-29T13:39:57;19.20;24.80
3198;DHT22;1611;49.394;11.136;2024-03-29T13:42:24;19.40;23.70
3198;DHT22;1611;49.394;11.136;2024-03-29T13:44:51;19.70;23.40
3198;DHT22;1611;49.394;11.136;2024-03-29T13:47:18;19.90;23.40
3198;DHT22;1611;49.394;11.136;2024-03-29T13:49:46;20.20;23.40
3198;DHT22;1611;49.394;11.136;2024-03-29T13:52:13;20.60;20.10
3198;DHT22;1611;49.394;11.136;2024-03-29T13:54:42;20.80;21.70
3198;DHT22;1611;49.394;11.136;2024-03-29T13:57:11;21.10;20.40
3198;DHT22;1611;49.394;11.136;2024-03-29T13:59:38;21.50;21.70
3198;DHT22;1611;49.394;11.136;2024-03-29T14:02:05;21.80;20.20
3198;DHT22;1611;49.394;11.136;2024-03-29T14:04:31;21.80;20.00
3198;DHT22;1611;49.394;11.136;2024-03-29T14:07:00;22.00;19.20
3198;DHT22;1611;49.394;11.136;2024-03-29T14:09:28;22.20;18.80
3198;DHT22;1611;49.394;11.136;2024-03-29T14:11:55;22.20;18.80
3198;DHT22;1611;49.394;11.136;2024-03-29T14:14:22;22.20;18.10
3198;DHT22;1611;49.394;11.136;2024-03-29T14:16:49;22.00;18.60
3198;DHT22;1611;49.394;11.136;2024-03-29T14:19:15;21.70;18.50
3198;DHT22;1611;49.394;11.136;2024-03-29T14:21:42;21.50;19.40
3198;DHT22;1611;49.394;11.136;2024-03-29T14:24:10;21.70;19.80
3198;DHT22;1611;49.394;11.136;2024-03-29T14:26:37;21.20;19.10
3198;DHT22;1611;49.394;11.136;2024-03-29T14:29:04;21.10;19.20
3198;DHT22;1611;49.394;11.136;2024-03-29T14:31:31;20.80;20.00
3198;DHT22;1611;49.394;11.136;2024-03-29T14:33:58;20.60;20.40
3198;DHT22;1611;49.394;11.136;2024-03-29T14:36:25;20.70;20.30
3198;DHT22;1611;49.394;11.136;2024-03-29T14:38:51;21.50;19.30
3198;DHT22;1611;49.394;11.136;2024-03-29T14:41:21;22.40;17.80
3198;DHT22;1611;49.394;11.136;2024-03-29T14:43:48;23.30;16.80
3198;DHT22;1611;49.394;11.136;2024-03-29T14:46:17;24.40;15.60
3198;DHT22;1611;49.394;11.136;2024-03-29T14:48:46;25.30;14.20
3198;DHT22;1611;49.394;11.136;2024-03-29T14:51:13;25.60;12.60
3198;DHT22;1611;49.394;11.136;2024-03-29T14:53:39;25.00;12.90
3198;DHT22;1611;49.394;11.136;2024-03-29T14:56:10;24.40;13.60
3198;DHT22;1611;49.394;11.136;2024-03-29T14:58:38;23.80;14.60
3198;DHT22;1611;49.394;11.136;2024-03-29T15:01:05;23.40;15.70
3198;DHT22;1611;49.394;11.136;2024-03-29T15:03:32;23.00;16.40
3198;DHT22;1611;49.394;11.136;2024-03-29T15:05:59;22.60;17.10
3198;DHT22;1611;49.394;11.136;2024-03-29T15:08:25;22.20;17.40
3198;DHT22;1611;49.394;11.136;2024-03-29T15:10:56;22.00;18.10
3198;DHT22;1611;49.394;11.136;2024-03-29T15:13:23;21.60;17.70
3198;DHT22;1611;49.394;11.136;2024-03-29T15:15:54;21.10;18.50
3198;DHT22;1611;49.394;11.136;2024-03-29T15:18:21;20.80;19.40
3198;DHT22;1611;49.394;11.136;2024-03-29T15:20:54;20.80;20.20
3198;DHT22;1611;49.394;11.136;2024-03-29T15:23:21;21.40;18.90
3198;DHT22;1611;49.394;11.136;2024-03-29T15:25:50;21.40;18.30
3198;DHT22;1611;49.394;11.136;2024-03-29T15:28:17;21.30;19.00
3198;DHT22;1611;49.394;11.136;2024-03-29T15:31:09;21.10;19.60
3198;DHT22;1611;49.394;11.136;2024-03-29T15:33:36;20.80;19.90
3198;DHT22;1611;49.394;11.136;2024-03-29T15:36:03;20.60;20.10
3198;DHT22;1611;49.394;11.136;2024-03-29T15:38:30;20.60;20.30
3198;DHT22;1611;49.394;11.136;2024-03-29T15:40:58;20.60;20.70
3198;DHT22;1611;49.394;11.136;2024-03-29T15:43:26;20.50;20.50
3198;DHT22;1611;49.394;11.136;2024-03-29T15:45:54;20.40;20.80
3198;DHT22;1611;49.394;11.136;2024-03-29T15:48:22;20.40;21.60
3198;DHT22;1611;49.394;11.136;2024-03-29T15:50:49;20.10;21.10
3198;DHT22;1611;49.394;11.136;2024-03-29T15:53:16;19.70;21.60